sensor_id;sensor_type;location;lat;lon;timestamp;P1;durP1;ratioP1;P2;durP2;ratioP2
32812;SDS011;19162;48.254;11.454;2023-04-26T00:02:29;9.93;;;8.85;;
32812;SDS011;19162;48.254;11.454;2023-04-26T00:05:29;10.60;;;9.60;;
32812;SDS011;19162;48.254;11.454;2023-04-26T00:08:30;9.63;;;8.73;;
32812;SDS011;19162;48.254;11.454;2023-04-26T00:11:30;9.30;;;8.50;;
32812;SDS011;19162;48.254;11.454;2023-04-26T00:14:30;10.40;;;9.50;;
32812;SDS011;19162;48.254;11.454;2023-04-26T00:17:30;8.80;;;8.10;;
32812;SDS011;19162;48.254;11.454;2023-04-26T00:20:30;9.97;;;9.07;;
32812;SDS011;19162;48.254;11.454;2023-04-26T00:23:31;9.90;;;9.00;;
32812;SDS011;19162;48.254;11.454;2023-04-26T00:26:31;10.43;;;9.63;;
32812;SDS011;19162;48.254;11.454;2023-04-26T00:29:33;11.27;;;10.25;;
32812;SDS011;19162;48.254;11.454;2023-04-26T00:32:33;10.48;;;9.32;;
32812;SDS011;19162;48.254;11.454;2023-04-26T00:35:34;9.73;;;9.02;;
32812;SDS011;19162;48.254;11.454;2023-04-26T00:38:34;9.60;;;8.70;;
32812;SDS011;19162;48.254;11.454;2023-04-26T00:41:35;9.30;;;8.60;;
32812;SDS011;19162;48.254;11.454;2023-04-26T00:44:35;9.55;;;8.85;;
32812;SDS011;19162;48.254;11.454;2023-04-26T00:47:36;9.82;;;8.82;;
32812;SDS011;19162;48.254;11.454;2023-04-26T00:50:37;10.50;;;9.48;;
32812;SDS011;19162;48.254;11.454;2023-04-26T00:53:37;10.17;;;9.37;;
32812;SDS011;19162;48.254;11.454;2023-04-26T00:56:37;9.70;;;8.87;;
32812;SDS011;19162;48.254;11.454;2023-04-26T00:59:38;9.45;;;8.75;;
32812;SDS011;19162;48.254;11.454;2023-04-26T01:02:38;9.90;;;9.10;;
32812;SDS011;19162;48.254;11.454;2023-04-26T01:05:38;10.70;;;9.70;;
32812;SDS011;19162;48.254;11.454;2023-04-26T01:08:38;9.80;;;8.90;;
32812;SDS011;19162;48.254;11.454;2023-04-26T01:11:39;10.67;;;9.67;;
32812;SDS011;19162;48.254;11.454;2023-04-26T01:14:39;10.80;;;9.82;;
32812;SDS011;19162;48.254;11.454;2023-04-26T01:17:40;10.68;;;9.63;;
32812;SDS011;19162;48.254;11.454;2023-04-26T01:20:40;10.82;;;9.93;;
32812;SDS011;19162;48.254;11.454;2023-04-26T01:23:41;10.98;;;9.98;;
32812;SDS011;19162;48.254;11.454;2023-04-26T01:26:42;10.73;;;9.73;;
32812;SDS011;19162;48.254;11.454;2023-04-26T01:29:45;10.73;;;9.77;;
32812;SDS011;19162;48.254;11.454;2023-04-26T01:32:46;12.52;;;11.43;;
32812;SDS011;19162;48.254;11.454;2023-04-26T01:35:46;11.10;;;10.10;;
32812;SDS011;19162;48.254;11.454;2023-04-26T01:38:46;11.30;;;10.25;;
32812;SDS011;19162;48.254;11.454;2023-04-26T01:41:47;11.27;;;10.32;;
32812;SDS011;19162;48.254;11.454;2023-04-26T01:44:47;11.20;;;10.20;;
32812;SDS011;19162;48.254;11.454;2023-04-26T01:47:47;11.38;;;10.38;;
32812;SDS011;19162;48.254;11.454;2023-04-26T01:50:47;11.63;;;10.67;;
32812;SDS011;19162;48.254;11.454;2023-04-26T01:53:47;11.02;;;9.95;;
32812;SDS011;19162;48.254;11.454;2023-04-26T01:56:48;11.38;;;10.48;;
32812;SDS011;19162;48.254;11.454;2023-04-26T01:59:48;10.65;;;9.82;;
32812;SDS011;19162;48.254;11.454;2023-04-26T02:02:48;10.13;;;9.32;;
32812;SDS011;19162;48.254;11.454;2023-04-26T02:05:48;10.80;;;9.82;;
32812;SDS011;19162;48.254;11.454;2023-04-26T02:08:48;11.27;;;10.17;;
32812;SDS011;19162;48.254;11.454;2023-04-26T02:11:49;10.20;;;9.37;;
32812;SDS011;19162;48.254;11.454;2023-04-26T02:14:49;9.75;;;8.95;;
32812;SDS011;19162;48.254;11.454;2023-04-26T02:17:50;9.15;;;8.45;;
32812;SDS011;19162;48.254;11.454;2023-04-26T02:20:52;9.85;;;8.85;;
32812;SDS011;19162;48.254;11.454;2023-04-26T02:23:52;9.40;;;8.45;;
32812;SDS011;19162;48.254;11.454;2023-04-26T02:26:52;9.97;;;9.07;;
32812;SDS011;19162;48.254;11.454;2023-04-26T02:29:53;9.77;;;8.77;;
32812;SDS011;19162;48.254;11.454;2023-04-26T02:32:53;10.27;;;9.05;;
32812;SDS011;19162;48.254;11.454;2023-04-26T02:35:54;9.32;;;8.52;;
32812;SDS011;19162;48.254;11.454;2023-04-26T02:38:54;9.50;;;8.70;;
32812;SDS011;19162;48.254;11.454;2023-04-26T02:41:54;9.53;;;8.57;;
32812;SDS011;19162;48.254;11.454;2023-04-26T02:44:54;10.88;;;7.97;;
32812;SDS011;19162;48.254;11.454;2023-04-26T02:47:55;8.75;;;8.10;;
32812;SDS011;19162;48.254;11.454;2023-04-26T02:50:55;9.55;;;8.82;;
32812;SDS011;19162;48.254;11.454;2023-04-26T02:53:56;8.45;;;7.80;;
32812;SDS011;19162;48.254;11.454;2023-04-26T02:56:56;9.00;;;7.97;;
32812;SDS011;19162;48.254;11.454;2023-04-26T02:59:57;7.47;;;6.95;;
32812;SDS011;19162;48.254;11.454;2023-04-26T03:02:58;8.68;;;7.88;;
32812;SDS011;19162;48.254;11.454;2023-04-26T03:05:58;8.67;;;7.73;;
32812;SDS011;19162;48.254;11.454;2023-04-26T03:08:58;7.70;;;7.00;;
32812;SDS011;19162;48.254;11.454;2023-04-26T03:11:59;7.63;;;7.00;;
32812;SDS011;19162;48.254;11.454;2023-04-26T03:14:59;8.52;;;7.72;;
32812;SDS011;19162;48.254;11.454;2023-04-26T03:18:01;8.77;;;7.78;;
32812;SDS011;19162;48.254;11.454;2023-04-26T03:21:02;8.82;;;7.93;;
32812;SDS011;19162;48.254;11.454;2023-04-26T03:24:02;8.45;;;7.75;;
32812;SDS011;19162;48.254;11.454;2023-04-26T03:27:03;8.13;;;7.32;;
32812;SDS011;19162;48.254;11.454;2023-04-26T03:30:03;8.23;;;7.17;;
32812;SDS011;19162;48.254;11.454;2023-04-26T03:33:04;7.80;;;6.88;;
32812;SDS011;19162;48.254;11.454;2023-04-26T03:36:04;7.72;;;7.13;;
32812;SDS011;19162;48.254;11.454;2023-04-26T03:39:05;7.85;;;7.18;;
32812;SDS011;19162;48.254;11.454;2023-04-26T03:42:06;6.65;;;6.05;;
32812;SDS011;19162;48.254;11.454;2023-04-26T03:45:07;9.40;;;7.10;;
32812;SDS011;19162;48.254;11.454;2023-04-26T03:48:07;7.95;;;6.65;;
32812;SDS011;19162;48.254;11.454;2023-04-26T03:51:07;8.18;;;7.38;;
32812;SDS011;19162;48.254;11.454;2023-04-26T03:54:08;8.07;;;7.27;;
32812;SDS011;19162;48.254;11.454;2023-04-26T03:57:08;8.23;;;7.53;;
32812;SDS011;19162;48.254;11.454;2023-04-26T04:00:08;8.32;;;7.57;;
32812;SDS011;19162;48.254;11.454;2023-04-26T04:03:13;10.25;;;7.55;;
32812;SDS011;19162;48.254;11.454;2023-04-26T04:06:13;7.82;;;7.13;;
32812;SDS011;19162;48.254;11.454;2023-04-26T04:09:13;8.65;;;7.95;;
32812;SDS011;19162;48.254;11.454;2023-04-26T04:12:14;8.57;;;7.88;;
32812;SDS011;19162;48.254;11.454;2023-04-26T04:15:14;9.13;;;8.20;;
32812;SDS011;19162;48.254;11.454;2023-04-26T04:18:15;8.13;;;7.32;;
32812;SDS011;19162;48.254;11.454;2023-04-26T04:21:15;8.57;;;7.78;;
32812;SDS011;19162;48.254;11.454;2023-04-26T04:24:15;8.55;;;7.90;;
32812;SDS011;19162;48.254;11.454;2023-04-26T04:27:16;8.48;;;7.75;;
32812;SDS011;19162;48.254;11.454;2023-04-26T04:30:16;7.93;;;7.22;;
32812;SDS011;19162;48.254;11.454;2023-04-26T04:33:17;9.27;;;8.48;;
32812;SDS011;19162;48.254;11.454;2023-04-26T04:36:18;9.18;;;8.27;;
32812;SDS011;19162;48.254;11.454;2023-04-26T04:39:18;8.70;;;8.00;;
32812;SDS011;19162;48.254;11.454;2023-04-26T04:42:18;8.45;;;7.85;;
32812;SDS011;19162;48.254;11.454;2023-04-26T04:45:18;8.88;;;7.97;;
32812;SDS011;19162;48.254;11.454;2023-04-26T04:48:19;8.88;;;8.00;;
32812;SDS011;19162;48.254;11.454;2023-04-26T04:51:20;9.25;;;8.27;;
32812;SDS011;19162;48.254;11.454;2023-04-26T04:54:20;8.60;;;7.80;;
32812;SDS011;19162;48.254;11.454;2023-04-26T04:57:20;9.03;;;8.30;;
32812;SDS011;19162;48.254;11.454;2023-04-26T05:00:20;9.20;;;8.23;;
32812;SDS011;19162;48.254;11.454;2023-04-26T05:03:21;8.07;;;7.35;;
32812;SDS011;19162;48.254;11.454;2023-04-26T05:06:21;8.88;;;8.07;;
32812;SDS011;19162;48.254;11.454;2023-04-26T05:09:22;9.10;;;8.38;;
32812;SDS011;19162;48.254;11.454;2023-04-26T05:12:22;10.52;;;8.85;;
32812;SDS011;19162;48.254;11.454;2023-04-26T05:15:23;8.82;;;7.97;;
32812;SDS011;19162;48.254;11.454;2023-04-26T05:18:23;8.40;;;7.63;;
32812;SDS011;19162;48.254;11.454;2023-04-26T05:21:23;8.57;;;7.83;;
32812;SDS011;19162;48.254;11.454;2023-04-26T05:24:23;8.48;;;7.75;;
32812;SDS011;19162;48.254;11.454;2023-04-26T05:27:24;8.10;;;7.30;;
32812;SDS011;19162;48.254;11.454;2023-04-26T05:30:24;8.13;;;7.43;;
32812;SDS011;19162;48.254;11.454;2023-04-26T05:33:24;9.13;;;8.20;;
32812;SDS011;19162;48.254;11.454;2023-04-26T05:36:24;8.63;;;7.85;;
32812;SDS011;19162;48.254;11.454;2023-04-26T05:39:25;9.02;;;8.23;;
32812;SDS011;19162;48.254;11.454;2023-04-26T05:42:25;9.30;;;8.60;;
32812;SDS011;19162;48.254;11.454;2023-04-26T05:45:26;8.27;;;7.47;;
32812;SDS011;19162;48.254;11.454;2023-04-26T05:48:26;8.80;;;8.00;;
32812;SDS011;19162;48.254;11.454;2023-04-26T05:51:26;8.23;;;7.53;;
32812;SDS011;19162;48.254;11.454;2023-04-26T05:54:27;9.02;;;7.82;;
32812;SDS011;19162;48.254;11.454;2023-04-26T05:57:27;8.50;;;7.72;;
32812;SDS011;19162;48.254;11.454;2023-04-26T06:00:27;8.33;;;7.57;;
32812;SDS011;19162;48.254;11.454;2023-04-26T06:03:27;8.15;;;7.35;;
32812;SDS011;19162;48.254;11.454;2023-04-26T06:06:27;10.90;;;8.97;;
32812;SDS011;19162;48.254;11.454;2023-04-26T06:09:30;8.87;;;7.97;;
32812;SDS011;19162;48.254;11.454;2023-04-26T06:12:30;8.48;;;7.43;;
32812;SDS011;19162;48.254;11.454;2023-04-26T06:15:30;11.05;;;8.57;;
32812;SDS011;19162;48.254;11.454;2023-04-26T06:18:31;9.03;;;8.17;;
32812;SDS011;19162;48.254;11.454;2023-04-26T06:21:31;9.43;;;8.52;;
32812;SDS011;19162;48.254;11.454;2023-04-26T06:24:31;9.80;;;8.38;;
32812;SDS011;19162;48.254;11.454;2023-04-26T06:27:32;10.77;;;9.70;;
32812;SDS011;19162;48.254;11.454;2023-04-26T06:30:32;23.53;;;21.43;;
32812;SDS011;19162;48.254;11.454;2023-04-26T06:33:32;11.50;;;10.33;;
32812;SDS011;19162;48.254;11.454;2023-04-26T06:36:32;8.95;;;7.93;;
32812;SDS011;19162;48.254;11.454;2023-04-26T06:39:32;18.80;;;16.90;;
32812;SDS011;19162;48.254;11.454;2023-04-26T06:42:33;10.37;;;9.53;;
32812;SDS011;19162;48.254;11.454;2023-04-26T06:45:33;9.53;;;8.63;;
32812;SDS011;19162;48.254;11.454;2023-04-26T06:48:33;14.17;;;11.27;;
32812;SDS011;19162;48.254;11.454;2023-04-26T06:51:33;11.23;;;10.02;;
32812;SDS011;19162;48.254;11.454;2023-04-26T06:54:33;12.70;;;10.75;;
32812;SDS011;19162;48.254;11.454;2023-04-26T06:57:35;11.30;;;10.20;;
32812;SDS011;19162;48.254;11.454;2023-04-26T07:00:35;9.80;;;8.93;;
32812;SDS011;19162;48.254;11.454;2023-04-26T07:03:35;11.27;;;10.27;;
32812;SDS011;19162;48.254;11.454;2023-04-26T07:06:36;10.93;;;9.35;;
32812;SDS011;19162;48.254;11.454;2023-04-26T07:09:36;16.30;;;14.85;;
32812;SDS011;19162;48.254;11.454;2023-04-26T07:12:36;10.30;;;9.40;;
32812;SDS011;19162;48.254;11.454;2023-04-26T07:15:36;10.30;;;9.30;;
32812;SDS011;19162;48.254;11.454;2023-04-26T07:18:38;10.70;;;9.63;;
32812;SDS011;19162;48.254;11.454;2023-04-26T07:21:39;9.30;;;8.23;;
32812;SDS011;19162;48.254;11.454;2023-04-26T07:24:39;9.07;;;8.30;;
32812;SDS011;19162;48.254;11.454;2023-04-26T07:27:39;10.95;;;9.82;;
32812;SDS011;19162;48.254;11.454;2023-04-26T07:30:40;11.60;;;9.60;;
32812;SDS011;19162;48.254;11.454;2023-04-26T07:33:40;11.32;;;10.02;;
32812;SDS011;19162;48.254;11.454;2023-04-26T07:36:40;14.70;;;10.40;;
32812;SDS011;19162;48.254;11.454;2023-04-26T07:39:40;9.70;;;8.77;;
32812;SDS011;19162;48.254;11.454;2023-04-26T07:42:40;9.02;;;8.10;;
32812;SDS011;19162;48.254;11.454;2023-04-26T07:45:41;10.03;;;7.97;;
32812;SDS011;19162;48.254;11.454;2023-04-26T07:48:41;12.05;;;8.52;;
32812;SDS011;19162;48.254;11.454;2023-04-26T07:51:42;9.90;;;8.13;;
32812;SDS011;19162;48.254;11.454;2023-04-26T07:54:44;9.32;;;8.43;;
32812;SDS011;19162;48.254;11.454;2023-04-26T07:57:44;9.45;;;8.45;;
32812;SDS011;19162;48.254;11.454;2023-04-26T08:00:44;9.02;;;6.97;;
32812;SDS011;19162;48.254;11.454;2023-04-26T08:03:45;9.30;;;8.30;;
32812;SDS011;19162;48.254;11.454;2023-04-26T08:06:46;9.48;;;7.65;;
32812;SDS011;19162;48.254;11.454;2023-04-26T08:09:47;12.70;;;7.78;;
32812;SDS011;19162;48.254;11.454;2023-04-26T08:12:49;8.82;;;7.20;;
32812;SDS011;19162;48.254;11.454;2023-04-26T08:15:49;9.43;;;6.70;;
32812;SDS011;19162;48.254;11.454;2023-04-26T08:18:49;8.52;;;7.20;;
32812;SDS011;19162;48.254;11.454;2023-04-26T08:21:50;9.27;;;7.53;;
32812;SDS011;19162;48.254;11.454;2023-04-26T08:24:52;9.23;;;6.65;;
32812;SDS011;19162;48.254;11.454;2023-04-26T08:30:53;13.07;;;6.60;;
32812;SDS011;19162;48.254;11.454;2023-04-26T08:33:54;8.25;;;5.78;;
32812;SDS011;19162;48.254;11.454;2023-04-26T08:36:54;7.65;;;6.25;;
32812;SDS011;19162;48.254;11.454;2023-04-26T08:39:54;8.70;;;5.53;;
32812;SDS011;19162;48.254;11.454;2023-04-26T08:42:54;10.05;;;6.20;;
32812;SDS011;19162;48.254;11.454;2023-04-26T08:45:55;7.83;;;6.37;;
32812;SDS011;19162;48.254;11.454;2023-04-26T08:49:00;9.80;;;6.57;;
32812;SDS011;19162;48.254;11.454;2023-04-26T08:52:06;7.05;;;6.00;;
32812;SDS011;19162;48.254;11.454;2023-04-26T08:55:08;6.95;;;6.10;;
32812;SDS011;19162;48.254;11.454;2023-04-26T08:58:18;9.32;;;6.53;;
32812;SDS011;19162;48.254;11.454;2023-04-26T09:01:18;10.23;;;6.40;;
32812;SDS011;19162;48.254;11.454;2023-04-26T09:04:20;10.15;;;6.43;;
32812;SDS011;19162;48.254;11.454;2023-04-26T09:07:21;9.52;;;6.63;;
32812;SDS011;19162;48.254;11.454;2023-04-26T09:10:21;8.40;;;6.90;;
32812;SDS011;19162;48.254;11.454;2023-04-26T09:13:26;8.63;;;6.82;;
32812;SDS011;19162;48.254;11.454;2023-04-26T09:16:34;11.00;;;7.15;;
32812;SDS011;19162;48.254;11.454;2023-04-26T09:19:36;7.18;;;6.18;;
32812;SDS011;19162;48.254;11.454;2023-04-26T09:22:37;6.75;;;6.05;;
32812;SDS011;19162;48.254;11.454;2023-04-26T09:25:37;7.47;;;5.70;;
32812;SDS011;19162;48.254;11.454;2023-04-26T09:28:38;5.80;;;5.20;;
32812;SDS011;19162;48.254;11.454;2023-04-26T09:31:43;10.73;;;6.30;;
32812;SDS011;19162;48.254;11.454;2023-04-26T09:34:44;8.48;;;6.32;;
32812;SDS011;19162;48.254;11.454;2023-04-26T09:37:55;6.55;;;5.95;;
32812;SDS011;19162;48.254;11.454;2023-04-26T09:40:56;6.65;;;5.43;;
32812;SDS011;19162;48.254;11.454;2023-04-26T09:43:58;7.72;;;5.70;;
32812;SDS011;19162;48.254;11.454;2023-04-26T09:47:08;9.57;;;5.88;;
32812;SDS011;19162;48.254;11.454;2023-04-26T09:50:09;6.32;;;5.25;;
32812;SDS011;19162;48.254;11.454;2023-04-26T09:53:09;5.47;;;4.63;;
32812;SDS011;19162;48.254;11.454;2023-04-26T09:56:10;7.68;;;6.07;;
32812;SDS011;19162;48.254;11.454;2023-04-26T09:59:11;6.93;;;6.07;;
32812;SDS011;19162;48.254;11.454;2023-04-26T10:02:16;6.95;;;5.63;;
32812;SDS011;19162;48.254;11.454;2023-04-26T10:05:17;6.50;;;4.68;;
32812;SDS011;19162;48.254;11.454;2023-04-26T10:08:17;5.80;;;5.03;;
32812;SDS011;19162;48.254;11.454;2023-04-26T10:11:18;8.07;;;5.53;;
32812;SDS011;19162;48.254;11.454;2023-04-26T10:14:19;8.13;;;5.60;;
32812;SDS011;19162;48.254;11.454;2023-04-26T10:17:19;7.23;;;5.63;;
32812;SDS011;19162;48.254;11.454;2023-04-26T10:20:21;6.53;;;5.35;;
32812;SDS011;19162;48.254;11.454;2023-04-26T10:23:21;5.95;;;5.30;;
32812;SDS011;19162;48.254;11.454;2023-04-26T10:39:17;7.70;;;5.88;;
32812;SDS011;19162;48.254;11.454;2023-04-26T10:42:26;6.53;;;5.63;;
32812;SDS011;19162;48.254;11.454;2023-04-26T10:45:27;7.03;;;5.78;;
32812;SDS011;19162;48.254;11.454;2023-04-26T10:48:29;6.55;;;5.97;;
32812;SDS011;19162;48.254;11.454;2023-04-26T10:51:30;6.55;;;5.63;;
32812;SDS011;19162;48.254;11.454;2023-04-26T10:54:43;7.47;;;5.45;;
32812;SDS011;19162;48.254;11.454;2023-04-26T11:01:02;6.18;;;5.57;;
32812;SDS011;19162;48.254;11.454;2023-04-26T11:04:06;5.30;;;4.72;;
32812;SDS011;19162;48.254;11.454;2023-04-26T11:07:07;5.75;;;4.90;;
32812;SDS011;19162;48.254;11.454;2023-04-26T11:10:07;9.07;;;5.40;;
32812;SDS011;19162;48.254;11.454;2023-04-26T11:13:09;5.20;;;4.50;;
32812;SDS011;19162;48.254;11.454;2023-04-26T11:16:11;6.03;;;5.50;;
32812;SDS011;19162;48.254;11.454;2023-04-26T11:19:12;8.18;;;4.45;;
32812;SDS011;19162;48.254;11.454;2023-04-26T11:22:12;5.23;;;3.70;;
32812;SDS011;19162;48.254;11.454;2023-04-26T11:25:12;7.68;;;5.30;;
32812;SDS011;19162;48.254;11.454;2023-04-26T11:28:13;6.15;;;4.35;;
32812;SDS011;19162;48.254;11.454;2023-04-26T11:31:13;7.72;;;4.72;;
32812;SDS011;19162;48.254;11.454;2023-04-26T11:34:13;6.20;;;4.45;;
32812;SDS011;19162;48.254;11.454;2023-04-26T11:37:14;7.10;;;4.20;;
32812;SDS011;19162;48.254;11.454;2023-04-26T11:40:15;6.85;;;4.18;;
32812;SDS011;19162;48.254;11.454;2023-04-26T11:43:15;5.88;;;4.53;;
32812;SDS011;19162;48.254;11.454;2023-04-26T11:46:16;9.02;;;4.70;;
32812;SDS011;19162;48.254;11.454;2023-04-26T11:49:19;4.82;;;4.13;;
32812;SDS011;19162;48.254;11.454;2023-04-26T11:52:19;4.53;;;4.13;;
32812;SDS011;19162;48.254;11.454;2023-04-26T11:55:22;6.90;;;4.50;;
32812;SDS011;19162;48.254;11.454;2023-04-26T11:58:23;5.47;;;4.45;;
32812;SDS011;19162;48.254;11.454;2023-04-26T12:01:27;5.93;;;4.93;;
32812;SDS011;19162;48.254;11.454;2023-04-26T12:04:28;6.45;;;4.38;;
32812;SDS011;19162;48.254;11.454;2023-04-26T12:07:34;5.57;;;4.70;;
32812;SDS011;19162;48.254;11.454;2023-04-26T12:10:37;5.90;;;4.63;;
32812;SDS011;19162;48.254;11.454;2023-04-26T12:13:38;5.00;;;4.28;;
32812;SDS011;19162;48.254;11.454;2023-04-26T12:16:38;6.70;;;4.65;;
32812;SDS011;19162;48.254;11.454;2023-04-26T12:19:41;6.05;;;4.53;;
32812;SDS011;19162;48.254;11.454;2023-04-26T12:22:41;4.80;;;3.38;;
32812;SDS011;19162;48.254;11.454;2023-04-26T12:25:54;4.40;;;3.63;;
32812;SDS011;19162;48.254;11.454;2023-04-26T12:28:54;6.07;;;4.10;;
32812;SDS011;19162;48.254;11.454;2023-04-26T12:31:55;5.32;;;4.00;;
32812;SDS011;19162;48.254;11.454;2023-04-26T12:34:55;4.88;;;3.53;;
32812;SDS011;19162;48.254;11.454;2023-04-26T12:37:56;5.38;;;3.65;;
32812;SDS011;19162;48.254;11.454;2023-04-26T12:40:59;3.60;;;3.28;;
32812;SDS011;19162;48.254;11.454;2023-04-26T12:44:01;5.53;;;3.45;;
32812;SDS011;19162;48.254;11.454;2023-04-26T12:47:01;4.40;;;3.08;;
32812;SDS011;19162;48.254;11.454;2023-04-26T12:50:02;4.23;;;3.33;;
32812;SDS011;19162;48.254;11.454;2023-04-26T12:53:03;5.38;;;3.50;;
32812;SDS011;19162;48.254;11.454;2023-04-26T12:56:04;4.90;;;3.85;;
32812;SDS011;19162;48.254;11.454;2023-04-26T12:59:04;4.15;;;3.70;;
32812;SDS011;19162;48.254;11.454;2023-04-26T13:02:04;4.83;;;3.60;;
32812;SDS011;19162;48.254;11.454;2023-04-26T13:05:05;4.65;;;3.80;;
32812;SDS011;19162;48.254;11.454;2023-04-26T13:08:05;7.15;;;3.35;;
32812;SDS011;19162;48.254;11.454;2023-04-26T13:11:05;5.75;;;3.38;;
32812;SDS011;19162;48.254;11.454;2023-04-26T13:14:06;5.55;;;4.22;;
32812;SDS011;19162;48.254;11.454;2023-04-26T13:17:06;7.07;;;3.33;;
32812;SDS011;19162;48.254;11.454;2023-04-26T13:20:08;4.63;;;3.83;;
32812;SDS011;19162;48.254;11.454;2023-04-26T13:23:08;3.50;;;3.10;;
32812;SDS011;19162;48.254;11.454;2023-04-26T13:26:10;4.32;;;3.53;;
32812;SDS011;19162;48.254;11.454;2023-04-26T13:29:10;8.30;;;3.83;;
32812;SDS011;19162;48.254;11.454;2023-04-26T13:32:10;6.50;;;4.20;;
32812;SDS011;19162;48.254;11.454;2023-04-26T13:35:10;4.68;;;4.15;;
32812;SDS011;19162;48.254;11.454;2023-04-26T13:38:11;6.47;;;4.25;;
32812;SDS011;19162;48.254;11.454;2023-04-26T13:41:12;5.28;;;4.18;;
32812;SDS011;19162;48.254;11.454;2023-04-26T13:44:12;5.78;;;3.72;;
32812;SDS011;19162;48.254;11.454;2023-04-26T13:47:14;6.03;;;3.67;;
32812;SDS011;19162;48.254;11.454;2023-04-26T13:50:15;5.50;;;4.30;;
32812;SDS011;19162;48.254;11.454;2023-04-26T13:53:15;4.37;;;3.97;;
32812;SDS011;19162;48.254;11.454;2023-04-26T13:56:15;6.00;;;4.30;;
32812;SDS011;19162;48.254;11.454;2023-04-26T13:59:16;5.82;;;4.00;;
32812;SDS011;19162;48.254;11.454;2023-04-26T14:02:16;5.53;;;4.60;;
32812;SDS011;19162;48.254;11.454;2023-04-26T14:05:16;4.72;;;4.15;;
32812;SDS011;19162;48.254;11.454;2023-04-26T14:08:16;4.57;;;3.60;;
32812;SDS011;19162;48.254;11.454;2023-04-26T14:11:17;4.15;;;3.72;;
32812;SDS011;19162;48.254;11.454;2023-04-26T14:14:17;7.28;;;3.83;;
32812;SDS011;19162;48.254;11.454;2023-04-26T14:17:17;8.07;;;3.77;;
32812;SDS011;19162;48.254;11.454;2023-04-26T14:20:18;5.72;;;3.45;;
32812;SDS011;19162;48.254;11.454;2023-04-26T14:23:18;4.50;;;3.38;;
32812;SDS011;19162;48.254;11.454;2023-04-26T14:26:18;4.90;;;3.42;;
32812;SDS011;19162;48.254;11.454;2023-04-26T14:29:19;5.80;;;3.33;;
32812;SDS011;19162;48.254;11.454;2023-04-26T14:32:19;3.33;;;3.03;;
32812;SDS011;19162;48.254;11.454;2023-04-26T14:35:19;8.10;;;4.43;;
32812;SDS011;19162;48.254;11.454;2023-04-26T14:38:20;4.07;;;3.67;;
32812;SDS011;19162;48.254;11.454;2023-04-26T14:41:20;5.20;;;4.30;;
32812;SDS011;19162;48.254;11.454;2023-04-26T14:44:21;4.70;;;3.45;;
32812;SDS011;19162;48.254;11.454;2023-04-26T14:47:21;5.03;;;4.13;;
32812;SDS011;19162;48.254;11.454;2023-04-26T14:50:22;6.30;;;3.83;;
32812;SDS011;19162;48.254;11.454;2023-04-26T14:53:22;6.05;;;3.78;;
32812;SDS011;19162;48.254;11.454;2023-04-26T14:56:22;3.47;;;3.13;;
32812;SDS011;19162;48.254;11.454;2023-04-26T14:59:22;4.53;;;4.00;;
32812;SDS011;19162;48.254;11.454;2023-04-26T15:02:23;5.47;;;3.47;;
32812;SDS011;19162;48.254;11.454;2023-04-26T15:05:23;4.33;;;3.83;;
32812;SDS011;19162;48.254;11.454;2023-04-26T15:08:23;4.07;;;3.13;;
32812;SDS011;19162;48.254;11.454;2023-04-26T15:11:23;4.00;;;3.30;;
32812;SDS011;19162;48.254;11.454;2023-04-26T15:14:23;5.03;;;3.63;;
32812;SDS011;19162;48.254;11.454;2023-04-26T15:17:24;4.75;;;3.60;;
32812;SDS011;19162;48.254;11.454;2023-04-26T15:20:24;4.07;;;3.27;;
32812;SDS011;19162;48.254;11.454;2023-04-26T15:23:24;5.23;;;2.80;;
32812;SDS011;19162;48.254;11.454;2023-04-26T15:26:25;3.70;;;3.40;;
32812;SDS011;19162;48.254;11.454;2023-04-26T15:29:25;3.73;;;3.00;;
32812;SDS011;19162;48.254;11.454;2023-04-26T15:32:30;3.70;;;3.05;;
32812;SDS011;19162;48.254;11.454;2023-04-26T15:35:31;4.22;;;3.40;;
32812;SDS011;19162;48.254;11.454;2023-04-26T15:38:34;4.30;;;3.40;;
32812;SDS011;19162;48.254;11.454;2023-04-26T15:41:35;5.72;;;3.42;;
32812;SDS011;19162;48.254;11.454;2023-04-26T15:44:35;4.05;;;3.65;;
32812;SDS011;19162;48.254;11.454;2023-04-26T15:47:35;5.50;;;3.13;;
32812;SDS011;19162;48.254;11.454;2023-04-26T15:50:36;4.55;;;3.60;;
32812;SDS011;19162;48.254;11.454;2023-04-26T15:53:36;5.10;;;3.42;;
32812;SDS011;19162;48.254;11.454;2023-04-26T15:56:36;8.23;;;3.55;;
32812;SDS011;19162;48.254;11.454;2023-04-26T15:59:36;4.75;;;3.05;;
32812;SDS011;19162;48.254;11.454;2023-04-26T16:02:37;3.92;;;2.92;;
32812;SDS011;19162;48.254;11.454;2023-04-26T16:05:37;5.30;;;3.88;;
32812;SDS011;19162;48.254;11.454;2023-04-26T16:08:37;4.38;;;3.30;;
32812;SDS011;19162;48.254;11.454;2023-04-26T16:11:37;4.80;;;3.15;;
32812;SDS011;19162;48.254;11.454;2023-04-26T16:14:37;5.03;;;2.90;;
32812;SDS011;19162;48.254;11.454;2023-04-26T16:17:37;4.10;;;3.00;;
32812;SDS011;19162;48.254;11.454;2023-04-26T16:20:38;4.05;;;3.30;;
32812;SDS011;19162;48.254;11.454;2023-04-26T16:23:39;5.57;;;3.20;;
32812;SDS011;19162;48.254;11.454;2023-04-26T16:26:40;3.67;;;2.88;;
32812;SDS011;19162;48.254;11.454;2023-04-26T16:29:40;3.97;;;3.05;;
32812;SDS011;19162;48.254;11.454;2023-04-26T16:32:41;5.10;;;3.85;;
32812;SDS011;19162;48.254;11.454;2023-04-26T16:35:41;6.93;;;3.17;;
32812;SDS011;19162;48.254;11.454;2023-04-26T16:38:41;4.72;;;3.28;;
32812;SDS011;19162;48.254;11.454;2023-04-26T16:41:41;4.10;;;3.70;;
32812;SDS011;19162;48.254;11.454;2023-04-26T16:44:42;7.28;;;3.45;;
32812;SDS011;19162;48.254;11.454;2023-04-26T16:47:42;5.43;;;3.13;;
32812;SDS011;19162;48.254;11.454;2023-04-26T16:50:42;7.22;;;4.28;;
32812;SDS011;19162;48.254;11.454;2023-04-26T16:53:42;5.95;;;3.58;;
32812;SDS011;19162;48.254;11.454;2023-04-26T16:56:42;4.00;;;3.15;;
32812;SDS011;19162;48.254;11.454;2023-04-26T16:59:42;6.05;;;2.97;;
32812;SDS011;19162;48.254;11.454;2023-04-26T17:02:43;2.95;;;2.67;;
32812;SDS011;19162;48.254;11.454;2023-04-26T17:05:44;4.67;;;3.50;;
32812;SDS011;19162;48.254;11.454;2023-04-26T17:08:47;5.22;;;2.92;;
32812;SDS011;19162;48.254;11.454;2023-04-26T17:11:47;4.50;;;3.03;;
32812;SDS011;19162;48.254;11.454;2023-04-26T17:14:48;5.18;;;2.72;;
32812;SDS011;19162;48.254;11.454;2023-04-26T17:17:49;3.73;;;2.80;;
32812;SDS011;19162;48.254;11.454;2023-04-26T17:20:49;4.03;;;3.63;;
32812;SDS011;19162;48.254;11.454;2023-04-26T17:26:52;6.10;;;3.30;;
32812;SDS011;19162;48.254;11.454;2023-04-26T17:29:52;4.90;;;3.23;;
32812;SDS011;19162;48.254;11.454;2023-04-26T17:32:53;7.10;;;3.30;;
32812;SDS011;19162;48.254;11.454;2023-04-26T17:35:53;3.67;;;3.10;;
32812;SDS011;19162;48.254;11.454;2023-04-26T17:38:53;5.75;;;3.60;;
32812;SDS011;19162;48.254;11.454;2023-04-26T17:41:53;4.60;;;2.90;;
32812;SDS011;19162;48.254;11.454;2023-04-26T17:44:53;5.93;;;3.10;;
32812;SDS011;19162;48.254;11.454;2023-04-26T17:47:54;5.77;;;3.30;;
32812;SDS011;19162;48.254;11.454;2023-04-26T17:50:55;3.80;;;3.40;;
32812;SDS011;19162;48.254;11.454;2023-04-26T17:53:55;6.05;;;3.90;;
32812;SDS011;19162;48.254;11.454;2023-04-26T17:56:55;4.07;;;3.67;;
32812;SDS011;19162;48.254;11.454;2023-04-26T17:59:59;4.85;;;3.38;;
32812;SDS011;19162;48.254;11.454;2023-04-26T18:02:59;6.25;;;3.22;;
32812;SDS011;19162;48.254;11.454;2023-04-26T18:06:01;5.28;;;3.90;;
32812;SDS011;19162;48.254;11.454;2023-04-26T18:09:02;4.38;;;3.05;;
32812;SDS011;19162;48.254;11.454;2023-04-26T18:12:03;5.03;;;3.75;;